createdAt,value
2023-10-22T00:00:04.492Z,99666.91
2023-10-22T00:02:59.918Z,99662.53
2023-10-22T00:05:28.147Z,99663.37
2023-10-22T00:07:56.090Z,99664.20
2023-10-22T00:10:24.066Z,99665.91
2023-10-22T00:12:52.120Z,99660.70
2023-10-22T00:15:21.004Z,99658.09
2023-10-22T00:17:49.566Z,99660.70
2023-10-22T00:20:20.228Z,99652.01
2023-10-22T00:22:48.400Z,99653.72
2023-10-22T00:25:16.387Z,99654.59
2023-10-22T00:27:44.313Z,99645.89
2023-10-22T00:30:12.928Z,99645.89
2023-10-22T00:32:41.406Z,99647.62
2023-10-22T00:35:09.559Z,99645.89
2023-10-22T00:37:37.441Z,99635.48
2023-10-22T00:40:07.772Z,99630.27
2023-10-22T00:42:35.927Z,99625.95
2023-10-22T00:45:04.571Z,99620.73
2023-10-22T00:47:34.384Z,99624.23
2023-10-22T00:50:03.420Z,99625.15
2023-10-22T00:52:31.486Z,99625.99
2023-10-22T00:55:00.315Z,99618.22
2023-10-22T00:57:28.326Z,99621.67
2023-10-22T00:59:56.623Z,99616.45
2023-10-22T01:02:24.825Z,99618.22
2023-10-22T01:04:52.977Z,99612.96
2023-10-22T01:07:21.350Z,99618.13
2023-10-22T01:09:50.960Z,99612.90
2023-10-22T01:12:18.923Z,99609.41
2023-10-22T01:14:46.963Z,99591.16
2023-10-22T01:17:14.909Z,99591.11
2023-10-22T01:19:44.016Z,99590.22
2023-10-22T01:22:11.979Z,99584.95
2023-10-22T01:24:39.832Z,99573.64
2023-10-22T01:27:07.833Z,99564.88
2023-10-22T01:29:35.850Z,99561.39
2023-10-22T01:32:04.364Z,99563.09
2023-10-22T01:34:32.520Z,99562.19
2023-10-22T01:37:08.094Z,99562.14
2023-10-22T01:39:36.239Z,99560.36
2023-10-22T01:42:04.981Z,99567.30
2023-10-22T01:44:33.279Z,99567.24
2023-10-22T01:47:01.383Z,99563.70
2023-10-22T01:49:29.400Z,99556.75
2023-10-22T01:51:57.350Z,99555.86
2023-10-22T01:54:25.253Z,99556.64
2023-10-22T01:56:53.300Z,99560.08
2023-10-22T01:59:22.403Z,99551.41
2023-10-22T02:01:50.431Z,99558.34
2023-10-22T02:04:18.743Z,99560.91
2023-10-22T02:06:46.853Z,99560.84
2023-10-22T02:09:17.603Z,99568.61
2023-10-22T02:11:45.882Z,99569.48
2023-10-22T02:14:13.843Z,99559.89
2023-10-22T02:16:42.214Z,99561.61
2023-10-22T02:19:10.691Z,99546.85
2023-10-22T02:21:38.766Z,99542.53
2023-10-22T02:24:07.979Z,99547.74
2023-10-22T02:26:36.052Z,99547.74
2023-10-22T02:29:03.986Z,99533.86
2023-10-22T02:31:32.075Z,99534.75
2023-10-22T02:34:03.486Z,99538.26
2023-10-22T02:36:32.860Z,99530.43
2023-10-22T02:39:01.271Z,99548.63
2023-10-22T02:41:29.468Z,99556.45
2023-10-22T02:43:58.411Z,99569.43
2023-10-22T02:46:26.454Z,99556.44
2023-10-22T02:48:54.527Z,99571.14
2023-10-22T02:51:26.212Z,99565.93
2023-10-22T02:53:54.160Z,99565.98
2023-10-22T02:56:24.302Z,99572.88
2023-10-22T02:58:52.344Z,99574.64
2023-10-22T03:01:20.307Z,99571.14
2023-10-22T03:03:49.794Z,99586.73
2023-10-22T03:06:18.090Z,99593.67
2023-10-22T03:08:46.354Z,99594.55
2023-10-22T03:11:18.175Z,99602.32
2023-10-22T03:13:46.539Z,99607.54
2023-10-22T03:16:15.660Z,99598.88
2023-10-22T03:18:45.196Z,99598.88
2023-10-22T03:21:13.671Z,99595.39
2023-10-22T03:23:42.510Z,99567.59
2023-10-22T03:26:15.231Z,99565.03
2023-10-22T03:28:43.597Z,99583.30
2023-10-22T03:31:12.144Z,99568.54
2023-10-22T03:33:40.192Z,99549.45
2023-10-22T03:36:10.314Z,99546.90
2023-10-22T03:38:39.026Z,99553.85
2023-10-22T03:41:07.154Z,99539.92
2023-10-22T03:43:35.526Z,99532.09
2023-10-22T03:46:04.723Z,99537.31
2023-10-22T03:48:34.009Z,99544.19
2023-10-22T03:51:03.917Z,99554.55
2023-10-22T03:53:32.742Z,99537.17
2023-10-22T03:56:01.762Z,99546.66
2023-10-22T03:58:30.164Z,99535.33
2023-10-22T04:00:58.686Z,99534.39
2023-10-22T04:03:26.877Z,99529.17
2023-10-22T04:05:57.114Z,99526.52
2023-10-22T04:08:25.681Z,99518.67
2023-10-22T04:10:55.080Z,99513.37
2023-10-22T04:13:24.199Z,99509.84
2023-10-22T04:15:53.339Z,99501.13
2023-10-22T04:18:21.943Z,99504.56
2023-10-22T04:20:51.472Z,99498.39
2023-10-22T04:23:19.976Z,99491.41
2023-10-22T04:25:48.068Z,99484.41
2023-10-22T04:28:16.533Z,99474.78
2023-10-22T04:30:45.298Z,99470.33
2023-10-22T04:33:14.960Z,99465.88
2023-10-22T04:35:43.158Z,99464.84
2023-10-22T04:38:14.372Z,99470.80
2023-10-22T04:40:42.828Z,99460.30
2023-10-22T04:43:15.535Z,99461.13
2023-10-22T04:45:47.735Z,99462.86
2023-10-22T04:48:18.830Z,99453.34
2023-10-22T04:50:47.370Z,99451.58
2023-10-22T04:53:15.610Z,99453.34
2023-10-22T04:55:43.588Z,99445.52
2023-10-22T04:58:12.723Z,99448.97
2023-10-22T05:00:40.996Z,99456.74
2023-10-22T05:03:10.748Z,99459.33
2023-10-22T05:05:39.168Z,99458.43
2023-10-22T05:08:08.744Z,99461.04
2023-10-22T05:10:38.385Z,99449.73
2023-10-22T05:13:07.272Z,99445.41
2023-10-22T05:15:35.543Z,99454.11
2023-10-22T05:18:06.762Z,99443.69
2023-10-22T05:20:35.067Z,99448.89
2023-10-22T05:23:04.559Z,99446.28
2023-10-22T05:25:32.773Z,99447.98
2023-10-22T05:28:01.201Z,99437.55
2023-10-22T05:30:31.332Z,99441.05
2023-10-22T05:33:00.377Z,99433.23
2023-10-22T05:35:28.618Z,99434.97
2023-10-22T05:37:56.856Z,99428.91
2023-10-22T05:40:27.924Z,99430.64
2023-10-22T05:42:56.062Z,99423.69
2023-10-22T05:45:24.401Z,99428.00
2023-10-22T05:47:53.165Z,99428.00
2023-10-22T05:50:21.247Z,99415.80
2023-10-22T05:52:51.449Z,99421.91
2023-10-22T05:55:20.448Z,99420.20
2023-10-22T05:57:48.804Z,99425.42
2023-10-22T06:00:17.494Z,99435.86
2023-10-22T06:02:45.896Z,99433.31
2023-10-22T06:05:23.336Z,99435.08
2023-10-22T06:07:53.187Z,99429.88
2023-10-22T06:10:21.448Z,99427.27
2023-10-22T06:12:50.669Z,99425.54
2023-10-22T06:15:19.062Z,99428.93
2023-10-22T06:17:48.173Z,99415.09
2023-10-22T06:20:16.388Z,99417.65
2023-10-22T06:22:46.882Z,99409.82
2023-10-22T06:25:15.404Z,99404.60
2023-10-22T06:27:43.642Z,99402.80
2023-10-22T06:30:12.888Z,99395.00
2023-10-22T06:32:41.131Z,99395.81
2023-10-22T06:35:09.887Z,99393.20
2023-10-22T06:37:38.186Z,99392.28
2023-10-22T06:40:08.263Z,99382.69
2023-10-22T06:42:36.267Z,99382.63
2023-10-22T06:45:06.188Z,99377.38
2023-10-22T06:47:37.108Z,99380.83
2023-10-22T06:50:06.169Z,99381.64
2023-10-22T06:52:34.646Z,99374.65
2023-10-22T06:55:02.647Z,99371.95
2023-10-22T06:57:30.777Z,99361.48
2023-10-22T07:00:00.159Z,99359.71
2023-10-22T07:02:29.190Z,99340.48
2023-10-22T07:04:59.342Z,99335.23
2023-10-22T07:07:27.929Z,99328.14
2023-10-22T07:09:56.577Z,99325.44
2023-10-22T07:12:27.948Z,99313.14
2023-10-22T07:14:56.144Z,99314.72
2023-10-22T07:17:24.539Z,99318.11
2023-10-22T07:19:53.427Z,99319.70
2023-10-22T07:22:21.859Z,99311.83
2023-10-22T07:24:51.312Z,99300.45
2023-10-22T07:27:19.413Z,99296.03
2023-10-22T07:29:48.495Z,99293.39
2023-10-22T07:32:16.795Z,99296.78
2023-10-22T07:34:47.464Z,99287.14
2023-10-22T07:37:15.696Z,99287.05
2023-10-22T07:39:44.320Z,99289.66
2023-10-22T07:42:12.625Z,99286.14
2023-10-22T07:44:41.195Z,99286.98
2023-10-22T07:47:09.468Z,99293.02
2023-10-22T07:49:37.797Z,99292.17
2023-10-22T07:52:07.845Z,99284.34
2023-10-22T07:54:36.302Z,99292.20
2023-10-22T07:57:06.027Z,99292.27
2023-10-22T07:59:34.417Z,99299.27
2023-10-22T08:02:02.929Z,99288.02
2023-10-22T08:04:31.228Z,99282.82
2023-10-22T08:07:00.279Z,99287.20
2023-10-22T08:09:28.795Z,99285.44
2023-10-22T08:11:57.214Z,99283.69
2023-10-22T08:14:26.773Z,99281.08
2023-10-22T08:16:54.991Z,99281.08
2023-10-22T08:19:23.659Z,99281.08
2023-10-22T08:21:52.272Z,99280.17
2023-10-22T08:24:20.888Z,99278.41
2023-10-22T08:26:49.444Z,99285.40
2023-10-22T08:29:18.031Z,99287.20
2023-10-22T08:31:46.257Z,99284.59
2023-10-22T08:34:14.521Z,99281.98
2023-10-22T08:36:44.405Z,99272.44
2023-10-22T08:39:15.172Z,99267.22
2023-10-22T08:41:45.886Z,99257.60
2023-10-22T08:44:15.168Z,99268.92
2023-10-22T08:46:43.777Z,99273.24
2023-10-22T08:49:12.411Z,99275.86
2023-10-22T08:51:41.499Z,99274.98
2023-10-22T08:54:11.107Z,99281.08
2023-10-22T08:56:39.974Z,99278.47
2023-10-22T08:59:09.525Z,99272.44
2023-10-22T09:01:38.585Z,99272.38
2023-10-22T09:04:08.086Z,99271.47
2023-10-22T09:06:39.414Z,99261.92
2023-10-22T09:09:08.516Z,99256.70
2023-10-22T09:11:37.508Z,99262.80
2023-10-22T09:14:21.410Z,99258.41
2023-10-22T09:16:50.450Z,99247.02
2023-10-22T09:19:35.138Z,99247.80
2023-10-22T09:22:05.085Z,99236.41
2023-10-22T09:24:34.403Z,99247.64
2023-10-22T09:27:03.272Z,99234.54
2023-10-22T09:29:33.793Z,99229.22
2023-10-22T09:32:03.277Z,99229.95
2023-10-22T09:34:32.953Z,99229.05
2023-10-22T09:37:01.345Z,99226.30
2023-10-22T09:39:36.841Z,99220.17
2023-10-22T09:44:38.906Z,99218.30
2023-10-22T09:47:08.705Z,99218.16
2023-10-22T09:49:39.534Z,99216.28
2023-10-22T09:52:07.995Z,99217.98
2023-10-22T09:54:40.682Z,99216.21
2023-10-22T09:57:10.236Z,99213.59
2023-10-22T09:59:39.257Z,99212.62
2023-10-22T10:02:11.276Z,99202.06
2023-10-22T10:04:41.792Z,99198.55
2023-10-22T10:07:11.593Z,99193.31
2023-10-22T10:09:42.292Z,99182.80
2023-10-22T10:12:12.995Z,99185.37
2023-10-22T10:14:43.096Z,99177.45
2023-10-22T10:17:12.227Z,99188.75
2023-10-22T10:19:41.003Z,99182.62
2023-10-22T10:22:09.148Z,99187.73
2023-10-22T10:24:40.431Z,99179.83
2023-10-22T10:27:24.552Z,99170.13
2023-10-22T10:30:11.080Z,99176.09
2023-10-22T10:32:50.224Z,99172.61
2023-10-22T10:35:24.762Z,99176.92
2023-10-22T10:38:07.565Z,99174.31
2023-10-22T10:40:42.938Z,99176.02
2023-10-22T10:43:11.629Z,99171.52
2023-10-22T10:45:41.940Z,99167.95
2023-10-22T10:48:27.284Z,99169.59
2023-10-22T10:51:11.050Z,99167.73
2023-10-22T10:53:56.635Z,99160.69
2023-10-22T10:56:44.995Z,99157.95
2023-10-22T10:59:24.783Z,99152.59
2023-10-22T11:02:02.623Z,99152.47
2023-10-22T11:04:34.505Z,99152.40
2023-10-22T11:07:14.013Z,99153.99
2023-10-22T11:09:47.590Z,99147.78
2023-10-22T11:12:16.237Z,99146.83
2023-10-22T11:14:54.046Z,99145.84
2023-10-22T11:17:22.629Z,99147.55
2023-10-22T11:19:51.731Z,99143.11
2023-10-22T11:22:21.098Z,99140.34
2023-10-22T11:24:51.583Z,99148.20
2023-10-22T11:27:20.324Z,99145.53
2023-10-22T11:29:49.342Z,99148.98
2023-10-22T11:32:18.475Z,99151.41
2023-10-22T11:34:52.013Z,99152.14
2023-10-22T11:37:29.946Z,99149.41
2023-10-22T11:40:00.829Z,99149.41
2023-10-22T11:42:33.063Z,99148.49
2023-10-22T11:45:05.696Z,99148.49
2023-10-22T11:47:35.226Z,99149.36
2023-10-22T11:50:05.380Z,99145.88
2023-10-22T11:52:51.831Z,99156.34
2023-10-22T11:55:36.156Z,99152.81
2023-10-22T11:58:06.317Z,99161.50
2023-10-22T12:00:37.214Z,99157.97
2023-10-22T12:03:10.236Z,99152.73
2023-10-22T12:05:40.278Z,99147.50
2023-10-22T12:08:09.720Z,99154.52
2023-10-22T12:10:42.682Z,99152.81
2023-10-22T12:13:13.490Z,99158.12
2023-10-22T12:15:42.658Z,99156.45
2023-10-22T12:18:11.490Z,99142.61
2023-10-22T12:20:39.951Z,99144.44
2023-10-22T12:23:11.815Z,99150.50
2023-10-22T12:25:40.141Z,99148.88
2023-10-22T12:28:08.729Z,99149.78
2023-10-22T12:30:37.282Z,99158.55
2023-10-22T12:33:08.375Z,99155.13
2023-10-22T12:35:39.507Z,99160.52
2023-10-22T12:38:08.044Z,99147.55
2023-10-22T12:40:36.894Z,99159.83
2023-10-22T12:43:05.868Z,99168.66
2023-10-22T12:45:38.634Z,99167.94
2023-10-22T12:48:07.027Z,99175.94
2023-10-22T12:50:35.614Z,99169.87
2023-10-22T12:53:05.065Z,99176.02
2023-10-22T12:55:33.097Z,99176.13
2023-10-22T12:58:01.445Z,99176.19
2023-10-22T13:00:30.461Z,99174.67
2023-10-22T13:02:59.118Z,99184.38
2023-10-22T13:05:27.499Z,99180.95
2023-10-22T13:07:55.854Z,99188.08
2023-10-22T13:10:24.072Z,99184.77
2023-10-22T13:13:06.264Z,99191.05
2023-10-22T13:15:38.303Z,99185.05
2023-10-22T13:18:06.615Z,99185.13
2023-10-22T13:20:35.012Z,99186.91
2023-10-22T13:23:03.014Z,99190.46
2023-10-22T13:25:31.054Z,99187.91
2023-10-22T13:27:59.206Z,99187.11
2023-10-22T13:30:27.817Z,99193.21
2023-10-22T13:32:58.729Z,99193.21
2023-10-22T13:35:27.035Z,99183.59
2023-10-22T13:37:57.348Z,99192.34
2023-10-22T13:40:25.591Z,99191.61
2023-10-22T13:42:56.040Z,99199.45
2023-10-22T13:45:24.719Z,99195.13
2023-10-22T13:47:53.779Z,99197.02
2023-10-22T13:50:22.584Z,99203.21
2023-10-22T13:52:51.069Z,99211.09
2023-10-22T13:55:19.211Z,99212.06
2023-10-22T13:57:47.319Z,99222.69
2023-10-22T14:00:16.457Z,99222.75
2023-10-22T14:02:47.075Z,99225.46
2023-10-22T14:05:15.572Z,99227.27
2023-10-22T14:07:45.446Z,99230.89
2023-10-22T14:10:13.536Z,99243.18
2023-10-22T14:12:41.691Z,99238.86
2023-10-22T14:15:12.219Z,99248.51
2023-10-22T14:17:40.551Z,99244.25
2023-10-22T14:20:09.999Z,99250.38
2023-10-22T14:22:38.537Z,99253.09
2023-10-22T14:25:07.858Z,99255.77
2023-10-22T14:27:36.274Z,99263.63
2023-10-22T14:30:05.212Z,99268.92
2023-10-22T14:32:35.420Z,99268.98
2023-10-22T14:35:04.393Z,99270.73
2023-10-22T14:37:34.992Z,99281.23
2023-10-22T14:40:04.543Z,99284.75
2023-10-22T14:42:32.762Z,99284.75
2023-10-22T14:45:03.014Z,99290.00
2023-10-22T14:47:31.281Z,99286.56
2023-10-22T14:49:59.379Z,99296.10
2023-10-22T14:52:27.547Z,99292.62
2023-10-22T14:54:56.692Z,99297.00
2023-10-22T14:57:24.939Z,99309.16
2023-10-22T14:59:53.675Z,99309.16
2023-10-22T15:02:21.877Z,99313.48
2023-10-22T15:04:50.235Z,99318.64
2023-10-22T15:07:19.583Z,99320.35
2023-10-22T15:09:47.617Z,99326.38
2023-10-22T15:12:15.685Z,99328.09
2023-10-22T15:14:43.833Z,99325.39
2023-10-22T15:17:12.269Z,99342.73
2023-10-22T15:19:40.587Z,99345.26
2023-10-22T15:22:09.036Z,99355.61
2023-10-22T15:24:40.039Z,99356.45
2023-10-22T15:27:08.134Z,99365.97
2023-10-22T15:29:36.712Z,99365.91
2023-10-22T15:32:05.560Z,99375.45
2023-10-22T15:34:33.684Z,99384.10
2023-10-22T15:37:01.754Z,99388.42
2023-10-22T15:39:30.910Z,99398.81
2023-10-22T15:41:58.958Z,99404.84
2023-10-22T15:44:27.005Z,99410.91
2023-10-22T15:46:57.965Z,99418.72
2023-10-22T15:49:32.668Z,99415.20
2023-10-22T15:52:02.019Z,99432.56
2023-10-22T15:54:35.660Z,99435.15
2023-10-22T15:57:12.787Z,99428.21
2023-10-22T15:59:48.822Z,99438.66
2023-10-22T16:02:23.362Z,99439.50
2023-10-22T16:04:53.783Z,99448.22
2023-10-22T16:07:26.552Z,99461.22
2023-10-22T16:10:06.171Z,99460.37
2023-10-22T16:12:53.081Z,99471.67
2023-10-22T16:15:23.518Z,99482.13
2023-10-22T16:18:01.486Z,99483.84
2023-10-22T16:20:56.803Z,99487.33
2023-10-22T16:23:25.612Z,99497.72
2023-10-22T16:25:59.507Z,99497.72
2023-10-22T16:28:42.335Z,99511.69
2023-10-22T16:31:30.770Z,99516.85
2023-10-22T16:34:07.137Z,99519.47
2023-10-22T16:36:41.366Z,99524.69
2023-10-22T16:39:18.648Z,99526.41
2023-10-22T16:41:46.770Z,99536.86
2023-10-22T16:44:14.980Z,99533.34
2023-10-22T16:46:43.029Z,99537.73
2023-10-22T16:49:12.416Z,99535.95
2023-10-22T16:51:40.538Z,99537.73
2023-10-22T16:54:08.756Z,99548.19
2023-10-22T16:56:36.971Z,99547.31
2023-10-22T16:59:05.269Z,99554.25
2023-10-22T17:01:33.452Z,99558.64
2023-10-22T17:04:01.959Z,99555.16
2023-10-22T17:06:33.377Z,99558.67
2023-10-22T17:09:04.268Z,99563.00
2023-10-22T17:11:34.917Z,99567.32
2023-10-22T17:14:02.976Z,99564.77
2023-10-22T17:16:31.226Z,99571.70
2023-10-22T17:18:59.514Z,99573.42
2023-10-22T17:21:31.842Z,99577.78
2023-10-22T17:24:02.003Z,99585.67
2023-10-22T17:26:31.748Z,99582.19
2023-10-22T17:28:59.756Z,99593.52
2023-10-22T17:31:28.221Z,99598.74
2023-10-22T17:34:05.599Z,99595.25
2023-10-22T17:36:37.686Z,99603.97
2023-10-22T17:39:05.992Z,99605.71
2023-10-22T17:41:34.093Z,99608.33
2023-10-22T17:44:03.681Z,99614.45
2023-10-22T17:46:31.777Z,99618.00
2023-10-22T17:48:59.821Z,99621.51
2023-10-22T17:51:28.479Z,99626.73
2023-10-22T17:53:56.748Z,99624.14
2023-10-22T17:56:25.756Z,99630.25
2023-10-22T17:58:54.049Z,99642.44
2023-10-22T18:01:22.130Z,99634.59
2023-10-22T18:03:50.267Z,99650.28
2023-10-22T18:06:19.321Z,99651.17
2023-10-22T18:08:49.381Z,99651.17
2023-10-22T18:11:22.632Z,99659.02
2023-10-22T18:13:51.032Z,99658.17
2023-10-22T18:16:20.210Z,99666.91
2023-10-22T18:18:49.808Z,99675.66
2023-10-22T18:21:20.415Z,99677.42
2023-10-22T18:23:48.498Z,99679.16
2023-10-22T18:26:16.762Z,99687.00
2023-10-22T18:28:45.478Z,99691.39
2023-10-22T18:31:13.562Z,99693.12
2023-10-22T18:33:41.589Z,99695.80
2023-10-22T18:36:10.895Z,99699.30
2023-10-22T18:38:39.627Z,99710.59
2023-10-22T18:41:09.764Z,99710.59
2023-10-22T18:43:38.574Z,99714.98
2023-10-22T18:46:11.122Z,99723.66
2023-10-22T18:48:39.693Z,99723.72
2023-10-22T18:51:08.735Z,99734.17
2023-10-22T18:53:37.859Z,99740.27
2023-10-22T18:56:06.177Z,99742.02
2023-10-22T18:58:36.370Z,99746.34
2023-10-22T19:01:12.806Z,99745.50
2023-10-22T19:03:40.992Z,99749.01
2023-10-22T19:06:10.260Z,99760.30
2023-10-22T19:08:38.653Z,99757.69
2023-10-22T19:11:06.957Z,99762.91
2023-10-22T19:13:34.964Z,99766.42
2023-10-22T19:16:05.807Z,99766.42
2023-10-22T19:18:34.072Z,99767.30
2023-10-22T19:21:02.280Z,99769.86
2023-10-22T19:23:30.752Z,99767.30
2023-10-22T19:25:59.363Z,99771.63
2023-10-22T19:28:27.540Z,99777.75
2023-10-22T19:30:57.739Z,99780.36
2023-10-22T19:33:30.559Z,99782.98
2023-10-22T19:35:58.755Z,99780.36
2023-10-22T19:38:29.106Z,99780.36
2023-10-22T19:40:58.289Z,99787.33
2023-10-22T19:43:27.203Z,99789.94
2023-10-22T19:45:56.438Z,99790.81
2023-10-22T19:48:25.951Z,99796.05
2023-10-22T19:51:01.257Z,99803.83
2023-10-22T19:53:32.892Z,99800.39
2023-10-22T19:56:01.269Z,99797.77
2023-10-22T19:58:29.839Z,99805.59
2023-10-22T20:00:58.150Z,99806.44
2023-10-22T20:03:26.429Z,99802.98
2023-10-22T20:05:54.817Z,99809.90
2023-10-22T20:08:23.460Z,99802.98
2023-10-22T20:10:51.763Z,99806.44
2023-10-22T20:13:19.925Z,99813.44
2023-10-22T20:15:49.176Z,99811.67
2023-10-22T20:18:17.512Z,99819.51
2023-10-22T20:20:45.474Z,99815.12
2023-10-22T20:23:13.417Z,99822.94
2023-10-22T20:25:41.430Z,99821.22
2023-10-22T20:28:09.530Z,99828.17
2023-10-22T20:30:38.532Z,99828.17
2023-10-22T20:33:06.689Z,99835.11
2023-10-22T20:35:35.489Z,99840.34
2023-10-22T20:38:10.231Z,99839.45
2023-10-22T20:43:12.726Z,99844.62
2023-10-22T20:45:40.857Z,99845.46
2023-10-22T20:48:09.035Z,99852.41
2023-10-22T20:50:37.425Z,99858.52
2023-10-22T20:53:05.312Z,99861.97
2023-10-22T20:55:37.481Z,99857.62
2023-10-22T20:58:05.842Z,99863.69
2023-10-22T21:00:33.887Z,99863.67
2023-10-22T21:03:01.982Z,99868.84
2023-10-22T21:05:30.630Z,99859.28
2023-10-22T21:07:58.825Z,99862.74
2023-10-22T21:10:26.813Z,99859.23
2023-10-22T21:12:55.285Z,99867.95
2023-10-22T21:15:23.419Z,99867.89
2023-10-22T21:17:52.756Z,99869.67
2023-10-22T21:20:21.471Z,99867.89
2023-10-22T21:22:51.934Z,99871.38
2023-10-22T21:25:20.018Z,99870.51
2023-10-22T21:27:48.341Z,99867.00
2023-10-22T21:30:16.567Z,99868.72
2023-10-22T21:32:45.097Z,99877.38
2023-10-22T21:35:13.324Z,99872.16
2023-10-22T21:37:41.606Z,99875.61
2023-10-22T21:40:10.249Z,99883.45
2023-10-22T21:42:38.521Z,99887.79
2023-10-22T21:45:08.537Z,99892.17
2023-10-22T21:47:36.795Z,99889.56
2023-10-22T21:50:07.070Z,99897.40
2023-10-22T21:52:35.196Z,99895.69
2023-10-22T21:55:03.342Z,99900.86
2023-10-22T21:57:31.452Z,99900.02
2023-10-22T21:59:59.816Z,99909.59
2023-10-22T22:02:29.117Z,99910.47
2023-10-22T22:04:57.153Z,99914.83
2023-10-22T22:07:25.275Z,99920.03
2023-10-22T22:09:53.218Z,99925.26
2023-10-22T22:12:21.379Z,99922.64
2023-10-22T22:14:49.884Z,99933.10
2023-10-22T22:17:17.888Z,99938.33
2023-10-22T22:19:45.950Z,99932.23
2023-10-22T22:22:14.211Z,99939.22
2023-10-22T22:24:42.337Z,99937.51
2023-10-22T22:27:10.853Z,99937.52
2023-10-22T22:29:38.784Z,99938.40
2023-10-22T22:32:07.606Z,99941.06
2023-10-22T22:34:35.707Z,99944.57
2023-10-22T22:37:04.858Z,99944.59
2023-10-22T22:39:33.062Z,99953.30
2023-10-22T22:42:01.256Z,99954.20
2023-10-22T22:44:29.799Z,99956.83
2023-10-22T22:46:57.670Z,99961.22
2023-10-22T22:49:25.535Z,99958.60
2023-10-22T22:51:53.611Z,99964.72
2023-10-22T22:54:21.694Z,99969.11
2023-10-22T22:56:49.602Z,99973.45
2023-10-22T22:59:17.738Z,99976.07
2023-10-22T23:01:45.873Z,99970.84
2023-10-22T23:04:13.970Z,99974.35
2023-10-22T23:06:41.982Z,99970.89
2023-10-22T23:09:10.060Z,99974.40
2023-10-22T23:11:38.271Z,99975.29
2023-10-22T23:14:06.271Z,99977.95
2023-10-22T23:16:34.443Z,99985.80
2023-10-22T23:19:02.390Z,99987.53
2023-10-22T23:21:32.106Z,99978.84
2023-10-22T23:24:00.084Z,99985.80
2023-10-22T23:26:30.341Z,99991.03
2023-10-22T23:28:58.285Z,99993.70
2023-10-22T23:31:26.315Z,99994.59
2023-10-22T23:33:54.505Z,99995.48
2023-10-22T23:36:22.610Z,99994.64
2023-10-22T23:38:50.693Z,99998.14
2023-10-22T23:41:18.763Z,100005.11
2023-10-22T23:43:46.946Z,100006.05
2023-10-22T23:46:15.133Z,100004.33
2023-10-22T23:48:43.132Z,100006.09
2023-10-22T23:51:11.216Z,100014.83
2023-10-22T23:53:39.143Z,100014.83
2023-10-22T23:56:07.087Z,100018.33
2023-10-22T23:58:35.099Z,100019.22
